createdAt,value
2023-04-07T00:02:10.720Z,11.45
2023-04-07T00:04:40.597Z,10.93
2023-04-07T00:07:08.098Z,9.73
2023-04-07T00:09:35.510Z,10.63
2023-04-07T00:12:02.854Z,9.88
2023-04-07T00:14:30.232Z,10.70
2023-04-07T00:16:57.526Z,10.70
2023-04-07T00:19:29.518Z,9.88
2023-04-07T00:21:59.025Z,11.20
2023-04-07T00:24:33.954Z,11.07
2023-04-07T00:27:02.424Z,11.75
2023-04-07T00:29:32.430Z,9.35
2023-04-07T00:31:59.739Z,10.05
2023-04-07T00:34:31.920Z,12.13
2023-04-07T00:36:59.193Z,11.77
2023-04-07T00:39:31.456Z,10.07
2023-04-07T00:42:01.074Z,11.48
2023-04-07T00:44:30.835Z,11.57
2023-04-07T00:46:58.740Z,11.52
2023-04-07T00:49:28.377Z,11.27
2023-04-07T00:51:57.200Z,12.03
2023-04-07T00:54:24.989Z,10.60
2023-04-07T00:56:55.596Z,11.65
2023-04-07T00:59:22.984Z,11.25
2023-04-07T01:02:06.156Z,11.70
2023-04-07T01:04:41.063Z,12.03
2023-04-07T01:07:32.757Z,13.03
2023-04-07T01:10:07.874Z,10.80
2023-04-07T01:13:02.711Z,13.17
2023-04-07T01:15:34.301Z,14.57
2023-04-07T01:18:13.468Z,13.75
2023-04-07T01:20:43.638Z,11.93
2023-04-07T01:23:22.305Z,15.03
2023-04-07T01:26:20.406Z,13.23
2023-04-07T01:29:22.399Z,11.80
2023-04-07T01:31:51.260Z,14.00
2023-04-07T01:34:19.154Z,11.00
2023-04-07T01:36:48.233Z,12.00
2023-04-07T01:39:18.730Z,15.43
2023-04-07T01:41:49.293Z,13.17
2023-04-07T01:44:17.723Z,11.23
2023-04-07T01:46:47.533Z,11.23
2023-04-07T01:49:15.680Z,10.80
2023-04-07T01:51:43.432Z,9.63
2023-04-07T01:54:13.136Z,10.43
2023-04-07T01:56:42.923Z,9.20
2023-04-07T01:59:10.322Z,12.10
2023-04-07T02:01:40.704Z,10.97
2023-04-07T02:04:32.046Z,11.63
2023-04-07T02:07:09.694Z,11.60
2023-04-07T02:09:42.821Z,10.13
2023-04-07T02:12:14.555Z,7.93
2023-04-07T02:17:09.919Z,9.37
2023-04-07T02:19:37.820Z,9.00
2023-04-07T02:22:06.354Z,9.60
2023-04-07T02:24:36.087Z,9.80
2023-04-07T02:27:05.695Z,9.77
2023-04-07T02:29:35.376Z,9.87
2023-04-07T02:32:05.273Z,11.97
2023-04-07T02:34:36.210Z,10.77
2023-04-07T02:37:03.576Z,10.60
2023-04-07T02:39:30.880Z,9.50
2023-04-07T02:41:58.111Z,11.43
2023-04-07T02:44:25.340Z,13.23
2023-04-07T02:46:52.598Z,10.97
2023-04-07T02:49:22.331Z,10.47
2023-04-07T02:51:54.309Z,10.63
2023-04-07T02:54:23.909Z,10.33
2023-04-07T02:56:53.251Z,12.60
2023-04-07T02:59:22.944Z,12.43
2023-04-07T03:01:50.513Z,12.20
2023-04-07T03:04:20.182Z,11.43
2023-04-07T03:06:47.571Z,14.27
2023-04-07T03:09:15.064Z,15.83
2023-04-07T03:11:42.673Z,12.10
2023-04-07T03:14:10.216Z,13.30
2023-04-07T03:16:37.542Z,11.00
2023-04-07T03:19:04.827Z,14.57
2023-04-07T03:21:32.799Z,15.33
2023-04-07T03:24:00.449Z,14.20
2023-04-07T03:26:27.708Z,15.33
2023-04-07T03:28:54.935Z,18.50
2023-04-07T03:31:24.367Z,18.03
2023-04-07T03:33:51.879Z,21.03
2023-04-07T03:36:19.380Z,16.37
2023-04-07T03:38:48.116Z,16.67
2023-04-07T03:41:17.695Z,17.10
2023-04-07T03:43:45.029Z,13.17
2023-04-07T03:46:12.392Z,13.97
2023-04-07T03:48:39.723Z,14.30
2023-04-07T03:51:07.103Z,10.80
2023-04-07T03:53:36.660Z,12.53
2023-04-07T03:56:07.492Z,13.43
2023-04-07T03:58:42.779Z,13.77
2023-04-07T04:01:12.454Z,12.93
2023-04-07T04:03:42.756Z,12.70
2023-04-07T04:06:10.268Z,13.40
2023-04-07T04:08:37.555Z,12.40
2023-04-07T04:11:04.909Z,13.17
2023-04-07T04:13:32.330Z,12.57
2023-04-07T04:16:02.669Z,13.00
2023-04-07T04:18:34.645Z,13.20
2023-04-07T04:21:04.065Z,13.83
2023-04-07T04:23:31.335Z,11.30
2023-04-07T04:26:03.817Z,9.93
2023-04-07T04:28:31.371Z,12.93
2023-04-07T04:31:01.216Z,13.03
2023-04-07T04:33:28.542Z,12.53
2023-04-07T04:35:58.296Z,12.97
2023-04-07T04:38:25.605Z,14.70
2023-04-07T04:40:55.744Z,14.30
2023-04-07T04:43:22.998Z,13.93
2023-04-07T04:45:50.958Z,16.37
2023-04-07T04:48:20.594Z,13.90
2023-04-07T04:50:47.862Z,15.23
2023-04-07T04:53:15.117Z,13.50
2023-04-07T04:55:47.020Z,12.90
2023-04-07T04:58:16.764Z,13.87
2023-04-07T05:00:44.036Z,12.40
2023-04-07T05:03:11.585Z,13.00
2023-04-07T05:05:39.043Z,14.67
2023-04-07T05:08:06.428Z,15.30
2023-04-07T05:10:39.120Z,11.50
2023-04-07T05:13:06.585Z,12.50
2023-04-07T05:15:33.897Z,14.77
2023-04-07T05:18:03.340Z,14.33
2023-04-07T05:20:30.652Z,16.70
2023-04-07T05:23:03.088Z,18.13
2023-04-07T05:25:32.799Z,18.00
2023-04-07T05:28:03.442Z,16.10
2023-04-07T05:30:30.738Z,16.37
2023-04-07T05:32:58.104Z,14.60
2023-04-07T05:35:25.542Z,17.27
2023-04-07T05:37:52.871Z,15.70
2023-04-07T05:40:20.369Z,13.77
2023-04-07T05:42:47.646Z,14.43
2023-04-07T05:45:14.981Z,16.70
2023-04-07T05:47:44.839Z,15.40
2023-04-07T05:50:17.098Z,16.53
2023-04-07T05:52:44.394Z,13.90
2023-04-07T05:55:11.720Z,14.10
2023-04-07T05:57:38.941Z,15.63
2023-04-07T06:00:06.918Z,14.17
2023-04-07T06:02:34.345Z,13.53
2023-04-07T06:05:01.841Z,15.73
2023-04-07T06:07:29.110Z,12.90
2023-04-07T06:09:58.886Z,15.37
2023-04-07T06:12:28.543Z,15.90
2023-04-07T06:14:56.614Z,16.43
2023-04-07T06:17:26.250Z,15.03
2023-04-07T06:19:53.594Z,11.90
2023-04-07T06:22:20.878Z,13.90
2023-04-07T06:24:48.138Z,18.13
2023-04-07T06:27:16.430Z,16.50
2023-04-07T06:29:43.857Z,16.73
2023-04-07T06:32:11.140Z,15.93
2023-04-07T06:34:38.386Z,15.00
2023-04-07T06:37:08.580Z,16.80
2023-04-07T06:39:36.194Z,14.33
2023-04-07T06:42:03.470Z,15.67
2023-04-07T06:44:33.109Z,13.20
2023-04-07T06:47:00.416Z,14.60
2023-04-07T06:49:27.689Z,13.97
2023-04-07T06:51:57.402Z,15.65
2023-04-07T06:54:24.746Z,16.03
2023-04-07T06:56:53.656Z,18.67
2023-04-07T06:59:26.649Z,13.02
2023-04-07T07:01:54.001Z,17.13
2023-04-07T07:04:21.544Z,14.23
2023-04-07T07:06:49.019Z,14.02
2023-04-07T07:09:16.298Z,14.15
2023-04-07T07:11:43.567Z,14.80
2023-04-07T07:14:13.506Z,15.43
2023-04-07T07:16:45.594Z,16.27
2023-04-07T07:19:12.851Z,13.13
2023-04-07T07:21:40.308Z,13.20
2023-04-07T07:24:07.730Z,12.57
2023-04-07T07:26:35.064Z,12.10
2023-04-07T07:29:02.360Z,9.15
2023-04-07T07:31:31.215Z,10.90
2023-04-07T07:33:58.561Z,10.52
2023-04-07T07:36:28.691Z,10.23
2023-04-07T07:38:58.368Z,13.65
2023-04-07T07:41:28.023Z,10.82
2023-04-07T07:43:55.457Z,10.57
2023-04-07T07:46:24.428Z,13.90
2023-04-07T07:48:52.176Z,14.18
2023-04-07T07:51:21.977Z,10.80
2023-04-07T07:53:49.567Z,13.73
2023-04-07T07:56:19.880Z,11.95
2023-04-07T07:58:49.662Z,10.82
2023-04-07T08:01:16.918Z,13.75
2023-04-07T08:03:44.372Z,9.65
2023-04-07T08:06:14.203Z,11.50
2023-04-07T08:08:41.556Z,9.80
2023-04-07T08:11:11.427Z,9.82
2023-04-07T08:13:45.412Z,11.07
2023-04-07T08:16:15.578Z,10.98
2023-04-07T08:18:47.625Z,11.15
2023-04-07T08:21:15.618Z,11.50
2023-04-07T08:23:46.092Z,12.82
2023-04-07T08:26:13.598Z,11.77
2023-04-07T08:28:40.868Z,10.02
2023-04-07T08:31:08.207Z,10.15
2023-04-07T08:33:35.629Z,11.18
2023-04-07T08:36:03.056Z,12.57
2023-04-07T08:38:31.251Z,11.57
2023-04-07T08:41:13.198Z,12.13
2023-04-07T08:46:12.624Z,11.13
2023-04-07T08:48:43.810Z,12.90
2023-04-07T08:51:14.013Z,12.18
2023-04-07T08:53:48.219Z,10.57
2023-04-07T08:56:18.535Z,13.23
2023-04-07T08:58:50.787Z,13.98
2023-04-07T09:01:21.668Z,13.05
2023-04-07T09:03:50.295Z,12.20
2023-04-07T09:06:20.446Z,11.95
2023-04-07T09:08:47.682Z,12.43
2023-04-07T09:11:17.301Z,12.45
2023-04-07T09:13:44.633Z,13.02
2023-04-07T09:16:14.115Z,11.90
2023-04-07T09:18:43.650Z,13.23
2023-04-07T09:21:11.759Z,11.57
2023-04-07T09:23:41.688Z,12.18
2023-04-07T09:26:22.213Z,13.85
2023-04-07T09:28:55.765Z,12.15
2023-04-07T09:31:26.446Z,12.55
2023-04-07T09:33:53.953Z,12.90
2023-04-07T09:36:21.215Z,12.65
2023-04-07T09:38:48.466Z,13.50
2023-04-07T09:41:22.418Z,13.95
2023-04-07T09:43:59.255Z,13.20
2023-04-07T09:46:29.338Z,14.45
2023-04-07T09:49:05.248Z,14.25
2023-04-07T09:51:34.407Z,15.23
2023-04-07T09:54:01.707Z,12.88
2023-04-07T09:56:29.748Z,14.32
2023-04-07T09:59:00.208Z,14.18
2023-04-07T10:01:27.835Z,13.93
2023-04-07T10:03:57.960Z,13.02
2023-04-07T10:06:27.670Z,13.07
2023-04-07T10:08:54.941Z,14.15
2023-04-07T10:11:24.878Z,12.57
2023-04-07T10:13:54.943Z,13.50
2023-04-07T10:16:23.392Z,13.32
2023-04-07T10:18:53.229Z,14.32
2023-04-07T10:21:20.510Z,15.38
2023-04-07T10:24:23.451Z,12.68
2023-04-07T10:26:59.933Z,14.18
2023-04-07T10:29:34.524Z,15.05
2023-04-07T10:32:05.076Z,12.95
2023-04-07T10:34:50.628Z,12.57
2023-04-07T10:37:22.450Z,13.13
2023-04-07T10:39:51.480Z,13.48
2023-04-07T10:42:37.415Z,12.50
2023-04-07T10:45:09.528Z,13.02
2023-04-07T10:47:58.561Z,12.80
2023-04-07T10:50:29.357Z,11.15
2023-04-07T10:53:09.821Z,11.32
2023-04-07T10:55:46.848Z,12.13
2023-04-07T10:58:19.772Z,14.57
2023-04-07T11:01:10.426Z,12.85
2023-04-07T11:03:38.692Z,11.35
2023-04-07T11:06:08.177Z,11.80
2023-04-07T11:08:39.265Z,12.10
2023-04-07T11:11:09.684Z,14.02
2023-04-07T11:13:43.859Z,13.80
2023-04-07T11:16:11.449Z,12.95
2023-04-07T11:18:39.592Z,12.55
2023-04-07T11:21:08.173Z,12.23
2023-04-07T11:23:46.189Z,13.27
2023-04-07T11:26:15.206Z,13.88
2023-04-07T11:28:53.103Z,13.80
2023-04-07T11:31:31.721Z,12.40
2023-04-07T11:34:05.156Z,10.73
2023-04-07T11:36:40.574Z,14.48
2023-04-07T11:39:22.304Z,11.07
2023-04-07T11:41:51.869Z,10.43
2023-04-07T11:44:19.409Z,10.55
2023-04-07T11:46:58.359Z,11.77
2023-04-07T11:49:31.625Z,10.05
2023-04-07T11:52:04.089Z,10.82
2023-04-07T11:54:40.394Z,9.73
2023-04-07T11:57:10.390Z,11.38
2023-04-07T11:59:41.026Z,10.15
2023-04-07T12:02:08.678Z,10.03
2023-04-07T12:04:40.797Z,11.63
2023-04-07T12:07:12.295Z,12.45
2023-04-07T12:09:42.866Z,10.80
2023-04-07T12:12:10.768Z,10.38
2023-04-07T12:14:38.191Z,11.32
2023-04-07T12:17:05.475Z,10.10
2023-04-07T12:19:34.926Z,11.68
2023-04-07T12:22:06.665Z,10.20
2023-04-07T12:24:33.913Z,11.07
2023-04-07T12:27:01.248Z,9.38
2023-04-07T12:29:30.957Z,8.93
2023-04-07T12:31:58.259Z,9.75
2023-04-07T12:34:32.545Z,10.30
2023-04-07T12:37:02.260Z,9.30
2023-04-07T12:39:33.509Z,10.15
2023-04-07T12:42:00.819Z,9.30
2023-04-07T12:44:28.146Z,9.52
2023-04-07T12:46:55.599Z,8.68
2023-04-07T12:49:22.879Z,9.35
2023-04-07T12:51:52.862Z,11.20
2023-04-07T12:54:20.139Z,10.15
2023-04-07T12:56:47.825Z,9.65
2023-04-07T12:59:17.892Z,9.73
2023-04-07T13:01:49.557Z,11.07
2023-04-07T13:04:20.663Z,8.43
2023-04-07T13:06:53.205Z,8.10
2023-04-07T13:09:20.546Z,9.00
2023-04-07T13:11:50.024Z,8.90
2023-04-07T13:14:21.864Z,9.68
2023-04-07T13:16:49.202Z,8.70
2023-04-07T13:19:18.781Z,9.25
2023-04-07T13:21:48.591Z,9.70
2023-04-07T13:24:16.028Z,11.82
2023-04-07T13:26:43.322Z,10.15
2023-04-07T13:29:13.152Z,9.38
2023-04-07T13:31:40.452Z,10.18
2023-04-07T13:34:12.285Z,10.93
2023-04-07T13:36:42.177Z,8.55
2023-04-07T13:39:09.549Z,9.45
2023-04-07T13:41:39.278Z,9.57
2023-04-07T13:44:06.572Z,10.32
2023-04-07T13:46:38.293Z,9.13
2023-04-07T13:49:10.186Z,11.77
2023-04-07T13:51:37.926Z,9.32
2023-04-07T13:54:05.180Z,9.52
2023-04-07T13:56:44.004Z,12.80
2023-04-07T13:59:13.793Z,8.40
2023-04-07T14:01:41.230Z,8.60
2023-04-07T14:04:08.762Z,8.15
2023-04-07T14:06:40.693Z,9.75
2023-04-07T14:09:08.499Z,9.18
2023-04-07T14:11:36.841Z,8.52
2023-04-07T14:14:06.665Z,9.70
2023-04-07T14:16:34.001Z,9.30
2023-04-07T14:19:04.759Z,8.82
2023-04-07T14:21:34.547Z,10.00
2023-04-07T14:24:02.008Z,8.93
2023-04-07T14:26:29.281Z,9.63
2023-04-07T14:29:01.283Z,8.82
2023-04-07T14:31:30.929Z,8.73
2023-04-07T14:34:01.085Z,9.60
2023-04-07T14:36:28.484Z,9.48
2023-04-07T14:38:56.951Z,8.65
2023-04-07T14:41:24.811Z,9.52
2023-04-07T14:43:56.159Z,8.02
2023-04-07T14:46:24.000Z,9.68
2023-04-07T14:48:54.361Z,9.05
2023-04-07T14:51:24.116Z,9.73
2023-04-07T14:53:56.042Z,8.18
2023-04-07T14:56:25.855Z,7.57
2023-04-07T14:58:53.136Z,7.03
2023-04-07T15:01:20.414Z,10.02
2023-04-07T15:03:54.272Z,11.40
2023-04-07T15:06:24.844Z,10.02
2023-04-07T15:08:52.135Z,8.10
2023-04-07T15:11:21.888Z,7.72
2023-04-07T15:13:51.797Z,9.60
2023-04-07T15:16:19.172Z,13.93
2023-04-07T15:18:49.873Z,10.48
2023-04-07T15:21:17.213Z,9.60
2023-04-07T15:23:45.746Z,8.77
2023-04-07T15:26:13.160Z,8.02
2023-04-07T15:28:42.839Z,8.35
2023-04-07T15:31:12.287Z,8.57
2023-04-07T15:33:44.221Z,8.30
2023-04-07T15:36:13.730Z,7.82
2023-04-07T15:38:43.533Z,7.80
2023-04-07T15:41:15.490Z,8.23
2023-04-07T15:43:42.743Z,8.13
2023-04-07T15:46:10.099Z,8.15
2023-04-07T15:48:39.725Z,7.47
2023-04-07T15:51:07.045Z,9.57
2023-04-07T15:53:34.513Z,9.05
2023-04-07T15:56:01.762Z,9.40
2023-04-07T15:58:31.558Z,8.93
2023-04-07T16:01:02.075Z,12.70
2023-04-07T16:03:29.633Z,11.05
2023-04-07T16:05:59.537Z,12.20
2023-04-07T16:08:29.021Z,11.10
2023-04-07T16:10:56.311Z,10.55
2023-04-07T16:13:23.658Z,11.65
2023-04-07T16:15:54.956Z,11.02
2023-04-07T16:18:22.254Z,9.93
2023-04-07T16:20:52.246Z,9.80
2023-04-07T16:23:24.470Z,9.43
2023-04-07T16:25:51.776Z,10.50
2023-04-07T16:28:23.785Z,9.93
2023-04-07T16:30:51.162Z,9.88
2023-04-07T16:33:21.063Z,9.43
2023-04-07T16:35:51.037Z,9.07
2023-04-07T16:38:18.365Z,11.07
2023-04-07T16:41:03.304Z,10.38
2023-04-07T16:43:31.928Z,8.25
2023-04-07T16:46:01.844Z,8.55
2023-04-07T16:48:29.227Z,8.57
2023-04-07T16:50:58.652Z,9.07
2023-04-07T16:53:25.999Z,8.32
2023-04-07T16:55:53.266Z,10.57
2023-04-07T16:58:23.152Z,8.90
2023-04-07T17:00:50.735Z,8.95
2023-04-07T17:03:20.443Z,9.07
2023-04-07T17:05:50.154Z,11.02
2023-04-07T17:08:17.430Z,11.25
2023-04-07T17:10:44.651Z,10.55
2023-04-07T17:13:11.865Z,25.23
2023-04-07T17:15:39.206Z,15.20
2023-04-07T17:18:09.069Z,11.80
2023-04-07T17:20:36.393Z,11.45
2023-04-07T17:23:03.714Z,12.18
2023-04-07T17:25:33.158Z,13.02
2023-04-07T17:28:00.444Z,12.52
2023-04-07T17:30:27.816Z,12.27
2023-04-07T17:32:55.386Z,14.43
2023-04-07T17:35:22.916Z,12.73
2023-04-07T17:37:50.832Z,12.77
2023-04-07T17:40:18.359Z,13.15
2023-04-07T17:42:45.795Z,15.00
2023-04-07T17:45:16.053Z,11.68
2023-04-07T17:47:43.335Z,13.30
2023-04-07T17:50:11.101Z,12.27
2023-04-07T17:52:43.273Z,13.50
2023-04-07T17:55:10.817Z,13.40
2023-04-07T17:57:40.651Z,13.32
2023-04-07T18:00:10.868Z,13.60
2023-04-07T18:02:41.290Z,13.13
2023-04-07T18:05:09.805Z,13.73
2023-04-07T18:07:39.505Z,11.75
2023-04-07T18:10:07.355Z,12.45
2023-04-07T18:12:34.696Z,13.57
2023-04-07T18:15:01.941Z,13.48
2023-04-07T18:17:29.273Z,14.52
2023-04-07T18:19:56.585Z,12.35
2023-04-07T18:22:23.922Z,15.18
2023-04-07T18:24:51.652Z,14.60
2023-04-07T18:27:20.131Z,15.75
2023-04-07T18:29:47.378Z,14.55
2023-04-07T18:32:14.721Z,14.48
2023-04-07T18:34:42.047Z,16.15
2023-04-07T18:37:13.909Z,15.23
2023-04-07T18:39:44.869Z,14.73
2023-04-07T18:42:12.099Z,13.95
2023-04-07T18:44:39.437Z,18.13
2023-04-07T18:47:08.973Z,16.13
2023-04-07T18:49:36.198Z,16.98
2023-04-07T18:52:04.243Z,16.55
2023-04-07T18:54:31.538Z,15.45
2023-04-07T18:56:59.037Z,17.17
2023-04-07T18:59:29.126Z,16.25
2023-04-07T19:01:56.917Z,15.27
2023-04-07T19:04:25.030Z,15.48
2023-04-07T19:06:52.663Z,15.05
2023-04-07T19:09:20.627Z,15.13
2023-04-07T19:11:47.940Z,16.38
2023-04-07T19:14:15.457Z,15.90
2023-04-07T19:16:44.500Z,14.02
2023-04-07T19:19:14.404Z,18.75
2023-04-07T19:21:44.249Z,17.75
2023-04-07T19:24:11.832Z,18.10
2023-04-07T19:26:39.154Z,17.35
2023-04-07T19:29:07.164Z,15.60
2023-04-07T19:31:35.016Z,14.05
2023-04-07T19:34:02.260Z,21.38
2023-04-07T19:36:29.759Z,22.60
2023-04-07T19:38:57.016Z,15.35
2023-04-07T19:41:29.328Z,21.95
2023-04-07T19:43:58.959Z,25.27
2023-04-07T19:46:28.895Z,26.70
2023-04-07T19:48:56.332Z,20.70
2023-04-07T19:51:24.138Z,22.73
2023-04-07T19:53:51.814Z,16.27
2023-04-07T19:56:21.362Z,18.25
2023-04-07T19:58:50.885Z,17.15
2023-04-07T20:01:18.823Z,16.30
2023-04-07T20:03:46.799Z,15.63
2023-04-07T20:06:15.166Z,16.30
2023-04-07T20:08:45.148Z,16.10
2023-04-07T20:11:13.351Z,17.67
2023-04-07T20:13:41.849Z,16.90
2023-04-07T20:16:10.040Z,16.60
2023-04-07T20:18:37.481Z,17.55
2023-04-07T20:21:09.826Z,16.73
2023-04-07T20:23:37.865Z,16.50
2023-04-07T20:26:09.078Z,15.00
2023-04-07T20:28:38.558Z,13.82
2023-04-07T20:31:05.902Z,15.32
2023-04-07T20:33:33.234Z,14.77
2023-04-07T20:36:00.502Z,17.83
2023-04-07T20:38:27.873Z,14.85
2023-04-07T20:40:55.604Z,17.60
2023-04-07T20:43:23.817Z,19.17
2023-04-07T20:45:52.191Z,16.88
2023-04-07T20:48:25.785Z,17.58
2023-04-07T20:50:55.573Z,18.27
2023-04-07T20:53:25.288Z,17.42
2023-04-07T20:55:54.956Z,20.52
2023-04-07T20:58:22.252Z,17.17
2023-04-07T21:00:57.355Z,18.50
2023-04-07T21:03:30.947Z,16.80
2023-04-07T21:05:58.506Z,19.63
2023-04-07T21:08:25.898Z,19.42
2023-04-07T21:10:55.968Z,17.73
2023-04-07T21:13:25.862Z,17.98
2023-04-07T21:15:53.215Z,17.95
2023-04-07T21:18:22.909Z,16.73
2023-04-07T21:20:52.709Z,19.10
2023-04-07T21:23:20.097Z,19.00
2023-04-07T21:25:47.566Z,17.55
2023-04-07T21:28:17.292Z,16.10
2023-04-07T21:30:46.907Z,18.23
2023-04-07T21:33:16.667Z,15.93
2023-04-07T21:35:43.991Z,16.05
2023-04-07T21:38:11.268Z,15.57
2023-04-07T21:40:38.498Z,15.93
2023-04-07T21:43:05.770Z,17.70
2023-04-07T21:45:33.119Z,17.60
2023-04-07T21:48:00.460Z,18.00
2023-04-07T21:50:27.741Z,16.33
2023-04-07T21:52:55.101Z,16.85
2023-04-07T21:55:22.419Z,15.80
2023-04-07T21:57:50.721Z,15.93
2023-04-07T22:00:18.159Z,17.42
2023-04-07T22:02:45.963Z,17.45
2023-04-07T22:05:13.665Z,15.75
2023-04-07T22:07:41.177Z,14.02
2023-04-07T22:10:09.181Z,15.98
2023-04-07T22:12:38.783Z,14.50
2023-04-07T22:15:06.921Z,14.85
2023-04-07T22:17:36.707Z,15.80
2023-04-07T22:20:06.740Z,15.40
2023-04-07T22:22:36.318Z,17.10
2023-04-07T22:25:06.059Z,15.70
2023-04-07T22:27:34.001Z,17.15
2023-04-07T22:30:04.500Z,13.60
2023-04-07T22:32:31.916Z,16.73
2023-04-07T22:34:59.198Z,14.43
2023-04-07T22:37:26.436Z,15.50
2023-04-07T22:39:58.864Z,16.02
2023-04-07T22:42:26.141Z,15.85
2023-04-07T22:44:53.580Z,15.65
2023-04-07T22:47:23.425Z,16.10
2023-04-07T22:49:50.760Z,16.42
2023-04-07T22:52:18.248Z,17.73
2023-04-07T22:54:45.932Z,16.33
2023-04-07T22:57:13.217Z,17.48
2023-04-07T22:59:40.489Z,16.30
2023-04-07T23:02:10.233Z,17.35
2023-04-07T23:04:37.586Z,17.25
2023-04-07T23:07:04.901Z,15.77
2023-04-07T23:09:34.510Z,16.15
2023-04-07T23:12:04.606Z,15.15
2023-04-07T23:14:31.874Z,14.25
2023-04-07T23:16:59.305Z,14.27
2023-04-07T23:19:26.730Z,14.45
2023-04-07T23:21:56.744Z,14.65
2023-04-07T23:24:24.022Z,13.75
2023-04-07T23:26:51.432Z,14.18
2023-04-07T23:29:21.642Z,14.98
2023-04-07T23:31:48.975Z,15.15
2023-04-07T23:34:16.408Z,14.32
2023-04-07T23:36:45.907Z,16.25
2023-04-07T23:39:13.176Z,15.68
2023-04-07T23:41:41.035Z,14.20
2023-04-07T23:44:08.440Z,14.88
2023-04-07T23:46:35.938Z,15.38
2023-04-07T23:49:03.204Z,15.90
2023-04-07T23:51:30.645Z,15.88
2023-04-07T23:54:00.336Z,13.55
2023-04-07T23:56:28.966Z,13.10
2023-04-07T23:58:56.347Z,13.98
